VECC/CCU METAR and TAF weather

Enter ICAO airport designator
Station Type Date Time Source
VECC METAR 2022/06/26 08:30 UTC NOAA

VECC 260830Z 12006KT 3500 HZ SCT018 FEW030CB BKN100 31/27 Q1002 TEMPO TL0900 1500 TSRA


Station Type Date Time Source
VECC Decoded METAR 2022/06/26 08:30 UTC NOAA

Calcutta / Dum Dum, India (VECC) 22-39N 088-27E 6M
Jun 26, 2022 - 04:30 AM EDT / 2022.06.26 0830 UTC
Wind: from the ESE (120 degrees) at 7 MPH (6 KT):0
Visibility: 2 mile(s):0
Sky conditions: mostly cloudy
Weather: haze; Cumulonimbus clouds observed
Temperature: 87 F (31 C)
Heat index: 102.4 F (39.1 C):1
Dew Point: 80 F (27 C)
Relative Humidity: 79%
Pressure (altimeter): 29.59 in. Hg (1002 hPa)
ob: VECC 260830Z 12006KT 3500 HZ SCT018 FEW030CB BKN100 31/27 Q1002 TEMPO TL0900 1500 TSRA
cycle: 8

Station Type Date Time Source
VECC TAF 2022/06/26 06:48 UTC NOAA

TAF VECC 260500Z 2606/2712 16008KT 3500 -RA HZ SCT018 BKN100
TEMPO 2606/2610 1500 TSRA SCT015 FEW025CB OVC090
TEMPO 2706/2710 1500 TSRA SCT015 FEW025CB OVC090

Example: see airport list